sensor_id;sensor_type;location;lat;lon;timestamp;P1;durP1;ratioP1;P2;durP2;ratioP2
41883;SDS011;27566;50.930;5.328;2023-07-31T00:00:28;14.10;;;5.30;;
41883;SDS011;27566;50.930;5.328;2023-07-31T00:02:54;14.95;;;5.10;;
41883;SDS011;27566;50.930;5.328;2023-07-31T00:05:20;14.38;;;5.78;;
41883;SDS011;27566;50.930;5.328;2023-07-31T00:07:46;11.90;;;5.10;;
41883;SDS011;27566;50.930;5.328;2023-07-31T00:10:15;13.25;;;5.63;;
41883;SDS011;27566;50.930;5.328;2023-07-31T00:12:41;13.88;;;5.50;;
41883;SDS011;27566;50.930;5.328;2023-07-31T00:15:08;12.10;;;4.82;;
41883;SDS011;27566;50.930;5.328;2023-07-31T00:17:34;16.23;;;5.88;;
41883;SDS011;27566;50.930;5.328;2023-07-31T00:20:01;15.82;;;6.47;;
41883;SDS011;27566;50.930;5.328;2023-07-31T00:22:27;15.95;;;5.45;;
41883;SDS011;27566;50.930;5.328;2023-07-31T00:24:53;17.00;;;5.78;;
41883;SDS011;27566;50.930;5.328;2023-07-31T00:27:18;14.27;;;5.38;;
41883;SDS011;27566;50.930;5.328;2023-07-31T00:29:44;10.68;;;5.45;;
41883;SDS011;27566;50.930;5.328;2023-07-31T00:32:10;12.77;;;5.70;;
41883;SDS011;27566;50.930;5.328;2023-07-31T00:34:36;17.33;;;5.22;;
41883;SDS011;27566;50.930;5.328;2023-07-31T00:37:02;11.75;;;5.70;;
41883;SDS011;27566;50.930;5.328;2023-07-31T00:39:29;21.63;;;7.15;;
41883;SDS011;27566;50.930;5.328;2023-07-31T00:41:55;14.02;;;5.05;;
41883;SDS011;27566;50.930;5.328;2023-07-31T00:44:21;16.23;;;6.07;;
41883;SDS011;27566;50.930;5.328;2023-07-31T00:46:47;20.08;;;6.38;;
41883;SDS011;27566;50.930;5.328;2023-07-31T00:49:14;13.30;;;5.45;;
41883;SDS011;27566;50.930;5.328;2023-07-31T00:51:43;16.98;;;6.57;;
41883;SDS011;27566;50.930;5.328;2023-07-31T00:54:09;12.88;;;5.82;;
41883;SDS011;27566;50.930;5.328;2023-07-31T00:56:35;13.80;;;6.00;;
41883;SDS011;27566;50.930;5.328;2023-07-31T00:59:03;11.88;;;4.95;;
41883;SDS011;27566;50.930;5.328;2023-07-31T01:01:28;12.35;;;5.15;;
41883;SDS011;27566;50.930;5.328;2023-07-31T01:03:54;13.07;;;5.68;;
41883;SDS011;27566;50.930;5.328;2023-07-31T01:11:30;13.68;;;5.07;;
41883;SDS011;27566;50.930;5.328;2023-07-31T01:13:58;11.90;;;5.80;;
41883;SDS011;27566;50.930;5.328;2023-07-31T01:16:27;14.57;;;4.93;;
41883;SDS011;27566;50.930;5.328;2023-07-31T01:18:53;10.65;;;5.75;;
41883;SDS011;27566;50.930;5.328;2023-07-31T01:26:23;12.95;;;5.75;;
41883;SDS011;27566;50.930;5.328;2023-07-31T01:31:26;9.68;;;4.25;;
41883;SDS011;27566;50.930;5.328;2023-07-31T01:33:56;12.43;;;5.28;;
41883;SDS011;27566;50.930;5.328;2023-07-31T01:36:25;12.38;;;4.93;;
41883;SDS011;27566;50.930;5.328;2023-07-31T01:38:51;12.73;;;5.90;;
41883;SDS011;27566;50.930;5.328;2023-07-31T01:41:17;14.57;;;4.93;;
41883;SDS011;27566;50.930;5.328;2023-07-31T01:43:44;10.73;;;4.93;;
41883;SDS011;27566;50.930;5.328;2023-07-31T01:46:13;14.50;;;6.57;;
41883;SDS011;27566;50.930;5.328;2023-07-31T01:48:38;13.95;;;5.38;;
41883;SDS011;27566;50.930;5.328;2023-07-31T01:51:04;11.35;;;5.55;;
41883;SDS011;27566;50.930;5.328;2023-07-31T01:53:30;10.20;;;5.47;;
41883;SDS011;27566;50.930;5.328;2023-07-31T01:55:57;12.20;;;5.47;;
41883;SDS011;27566;50.930;5.328;2023-07-31T01:58:23;17.77;;;6.32;;
41883;SDS011;27566;50.930;5.328;2023-07-31T02:00:49;9.93;;;4.70;;
41883;SDS011;27566;50.930;5.328;2023-07-31T02:03:14;9.18;;;5.20;;
41883;SDS011;27566;50.930;5.328;2023-07-31T02:05:44;12.48;;;4.47;;
41883;SDS011;27566;50.930;5.328;2023-07-31T02:08:10;14.15;;;5.25;;
41883;SDS011;27566;50.930;5.328;2023-07-31T02:10:36;10.55;;;4.97;;
41883;SDS011;27566;50.930;5.328;2023-07-31T02:13:02;13.82;;;4.95;;
41883;SDS011;27566;50.930;5.328;2023-07-31T02:15:29;11.32;;;5.57;;
41883;SDS011;27566;50.930;5.328;2023-07-31T02:17:55;12.55;;;5.03;;
41883;SDS011;27566;50.930;5.328;2023-07-31T02:20:21;12.48;;;5.22;;
41883;SDS011;27566;50.930;5.328;2023-07-31T02:22:47;13.23;;;5.70;;
41883;SDS011;27566;50.930;5.328;2023-07-31T02:25:13;17.00;;;6.35;;
41883;SDS011;27566;50.930;5.328;2023-07-31T02:27:38;12.82;;;5.30;;
41883;SDS011;27566;50.930;5.328;2023-07-31T02:30:04;11.50;;;6.05;;
41883;SDS011;27566;50.930;5.328;2023-07-31T02:32:31;14.13;;;5.55;;
41883;SDS011;27566;50.930;5.328;2023-07-31T02:34:56;15.30;;;5.88;;
41883;SDS011;27566;50.930;5.328;2023-07-31T02:37:22;13.23;;;6.13;;
41883;SDS011;27566;50.930;5.328;2023-07-31T02:39:48;11.30;;;5.43;;
41883;SDS011;27566;50.930;5.328;2023-07-31T02:42:14;13.23;;;5.75;;
41883;SDS011;27566;50.930;5.328;2023-07-31T02:44:40;14.73;;;6.05;;
41883;SDS011;27566;50.930;5.328;2023-07-31T02:47:06;9.98;;;5.25;;
41883;SDS011;27566;50.930;5.328;2023-07-31T02:49:32;11.70;;;6.10;;
41883;SDS011;27566;50.930;5.328;2023-07-31T02:51:57;11.90;;;6.75;;
41883;SDS011;27566;50.930;5.328;2023-07-31T02:54:23;10.27;;;5.15;;
41883;SDS011;27566;50.930;5.328;2023-07-31T02:56:49;12.48;;;6.25;;
41883;SDS011;27566;50.930;5.328;2023-07-31T02:59:15;10.43;;;5.03;;
41883;SDS011;27566;50.930;5.328;2023-07-31T03:01:41;11.05;;;5.32;;
41883;SDS011;27566;50.930;5.328;2023-07-31T03:04:07;12.68;;;6.55;;
41883;SDS011;27566;50.930;5.328;2023-07-31T03:06:33;11.43;;;5.93;;
41883;SDS011;27566;50.930;5.328;2023-07-31T03:08:58;16.20;;;7.15;;
41883;SDS011;27566;50.930;5.328;2023-07-31T03:11:24;16.33;;;6.75;;
41883;SDS011;27566;50.930;5.328;2023-07-31T03:13:50;13.73;;;7.32;;
41883;SDS011;27566;50.930;5.328;2023-07-31T03:16:16;17.75;;;7.50;;
41883;SDS011;27566;50.930;5.328;2023-07-31T03:18:42;15.48;;;8.77;;
41883;SDS011;27566;50.930;5.328;2023-07-31T03:21:07;16.50;;;7.38;;
41883;SDS011;27566;50.930;5.328;2023-07-31T03:23:33;13.60;;;6.35;;
41883;SDS011;27566;50.930;5.328;2023-07-31T03:26:00;15.20;;;5.82;;
41883;SDS011;27566;50.930;5.328;2023-07-31T03:28:30;15.68;;;8.50;;
41883;SDS011;27566;50.930;5.328;2023-07-31T03:30:56;15.18;;;8.40;;
41883;SDS011;27566;50.930;5.328;2023-07-31T03:33:22;14.63;;;6.25;;
41883;SDS011;27566;50.930;5.328;2023-07-31T03:35:48;16.67;;;8.52;;
41883;SDS011;27566;50.930;5.328;2023-07-31T03:38:14;16.60;;;9.45;;
41883;SDS011;27566;50.930;5.328;2023-07-31T03:40:42;12.00;;;6.47;;
41883;SDS011;27566;50.930;5.328;2023-07-31T03:43:08;15.77;;;7.10;;
41883;SDS011;27566;50.930;5.328;2023-07-31T03:45:34;13.73;;;8.63;;
41883;SDS011;27566;50.930;5.328;2023-07-31T03:48:01;12.75;;;7.25;;
41883;SDS011;27566;50.930;5.328;2023-07-31T03:50:27;15.20;;;8.65;;
41883;SDS011;27566;50.930;5.328;2023-07-31T03:52:53;12.05;;;5.38;;
41883;SDS011;27566;50.930;5.328;2023-07-31T03:55:19;11.20;;;6.68;;
41883;SDS011;27566;50.930;5.328;2023-07-31T03:57:44;10.38;;;6.00;;
41883;SDS011;27566;50.930;5.328;2023-07-31T04:00:10;14.75;;;7.63;;
41883;SDS011;27566;50.930;5.328;2023-07-31T04:02:37;10.35;;;5.43;;
41883;SDS011;27566;50.930;5.328;2023-07-31T04:05:03;10.13;;;5.35;;
41883;SDS011;27566;50.930;5.328;2023-07-31T04:07:29;16.25;;;7.80;;
41883;SDS011;27566;50.930;5.328;2023-07-31T04:09:55;11.40;;;6.10;;
41883;SDS011;27566;50.930;5.328;2023-07-31T04:12:22;11.35;;;6.88;;
41883;SDS011;27566;50.930;5.328;2023-07-31T04:14:48;10.35;;;5.97;;
41883;SDS011;27566;50.930;5.328;2023-07-31T04:17:14;13.23;;;6.68;;
41883;SDS011;27566;50.930;5.328;2023-07-31T04:19:40;11.18;;;5.25;;
41883;SDS011;27566;50.930;5.328;2023-07-31T04:22:06;9.05;;;5.90;;
41883;SDS011;27566;50.930;5.328;2023-07-31T04:24:32;10.13;;;4.10;;
41883;SDS011;27566;50.930;5.328;2023-07-31T04:26:58;10.23;;;6.07;;
41883;SDS011;27566;50.930;5.328;2023-07-31T04:29:23;10.10;;;6.22;;
41883;SDS011;27566;50.930;5.328;2023-07-31T04:31:49;9.73;;;4.95;;
41883;SDS011;27566;50.930;5.328;2023-07-31T04:34:15;14.77;;;6.95;;
41883;SDS011;27566;50.930;5.328;2023-07-31T04:36:41;14.63;;;6.15;;
41883;SDS011;27566;50.930;5.328;2023-07-31T04:39:07;11.55;;;5.80;;
41883;SDS011;27566;50.930;5.328;2023-07-31T04:41:33;8.55;;;4.60;;
41883;SDS011;27566;50.930;5.328;2023-07-31T04:43:59;11.32;;;5.43;;
41883;SDS011;27566;50.930;5.328;2023-07-31T04:46:25;9.65;;;4.97;;
41883;SDS011;27566;50.930;5.328;2023-07-31T04:48:51;9.00;;;4.50;;
41883;SDS011;27566;50.930;5.328;2023-07-31T04:51:17;11.48;;;5.82;;
41883;SDS011;27566;50.930;5.328;2023-07-31T04:53:43;14.80;;;5.85;;
41883;SDS011;27566;50.930;5.328;2023-07-31T04:56:08;17.73;;;5.47;;
41883;SDS011;27566;50.930;5.328;2023-07-31T04:58:34;12.32;;;6.18;;
41883;SDS011;27566;50.930;5.328;2023-07-31T05:01:00;12.23;;;6.30;;
41883;SDS011;27566;50.930;5.328;2023-07-31T05:03:26;13.35;;;6.38;;
41883;SDS011;27566;50.930;5.328;2023-07-31T05:05:52;12.75;;;5.53;;
41883;SDS011;27566;50.930;5.328;2023-07-31T05:08:18;12.70;;;5.47;;
41883;SDS011;27566;50.930;5.328;2023-07-31T05:10:44;11.73;;;5.90;;
41883;SDS011;27566;50.930;5.328;2023-07-31T05:13:10;14.40;;;6.57;;
41883;SDS011;27566;50.930;5.328;2023-07-31T05:15:36;10.43;;;5.80;;
41883;SDS011;27566;50.930;5.328;2023-07-31T05:18:01;11.48;;;5.43;;
41883;SDS011;27566;50.930;5.328;2023-07-31T05:20:27;10.38;;;6.32;;
41883;SDS011;27566;50.930;5.328;2023-07-31T05:22:53;9.18;;;4.88;;
41883;SDS011;27566;50.930;5.328;2023-07-31T05:25:19;10.50;;;5.65;;
41883;SDS011;27566;50.930;5.328;2023-07-31T05:27:45;10.27;;;5.70;;
41883;SDS011;27566;50.930;5.328;2023-07-31T05:30:11;10.52;;;5.55;;
41883;SDS011;27566;50.930;5.328;2023-07-31T05:32:37;10.30;;;5.32;;
41883;SDS011;27566;50.930;5.328;2023-07-31T05:38:34;8.70;;;5.40;;
41883;SDS011;27566;50.930;5.328;2023-07-31T05:41:00;11.43;;;4.28;;
41883;SDS011;27566;50.930;5.328;2023-07-31T05:43:26;10.95;;;4.70;;
41883;SDS011;27566;50.930;5.328;2023-07-31T05:45:52;10.10;;;5.43;;
41883;SDS011;27566;50.930;5.328;2023-07-31T05:48:18;8.90;;;4.38;;
41883;SDS011;27566;50.930;5.328;2023-07-31T05:50:44;9.77;;;4.82;;
41883;SDS011;27566;50.930;5.328;2023-07-31T05:53:10;11.82;;;4.65;;
41883;SDS011;27566;50.930;5.328;2023-07-31T05:55:36;11.02;;;4.50;;
41883;SDS011;27566;50.930;5.328;2023-07-31T05:58:02;9.25;;;5.07;;
41883;SDS011;27566;50.930;5.328;2023-07-31T06:00:28;7.68;;;4.38;;
41883;SDS011;27566;50.930;5.328;2023-07-31T06:02:54;16.65;;;5.93;;
41883;SDS011;27566;50.930;5.328;2023-07-31T06:05:20;9.82;;;4.50;;
41883;SDS011;27566;50.930;5.328;2023-07-31T06:07:46;8.55;;;4.45;;
41883;SDS011;27566;50.930;5.328;2023-07-31T06:10:11;7.10;;;4.25;;
41883;SDS011;27566;50.930;5.328;2023-07-31T06:12:38;7.28;;;4.45;;
41883;SDS011;27566;50.930;5.328;2023-07-31T06:15:04;8.48;;;4.30;;
41883;SDS011;27566;50.930;5.328;2023-07-31T06:17:30;8.18;;;4.78;;
41883;SDS011;27566;50.930;5.328;2023-07-31T06:19:57;10.07;;;4.97;;
41883;SDS011;27566;50.930;5.328;2023-07-31T06:22:23;11.23;;;4.90;;
41883;SDS011;27566;50.930;5.328;2023-07-31T06:24:49;11.15;;;4.60;;
41883;SDS011;27566;50.930;5.328;2023-07-31T06:27:15;9.52;;;4.07;;
41883;SDS011;27566;50.930;5.328;2023-07-31T06:29:42;11.00;;;4.50;;
41883;SDS011;27566;50.930;5.328;2023-07-31T06:32:08;10.07;;;4.70;;
41883;SDS011;27566;50.930;5.328;2023-07-31T06:34:33;10.25;;;4.78;;
41883;SDS011;27566;50.930;5.328;2023-07-31T06:36:59;9.45;;;4.30;;
41883;SDS011;27566;50.930;5.328;2023-07-31T06:39:29;9.88;;;4.43;;
41883;SDS011;27566;50.930;5.328;2023-07-31T06:41:54;9.10;;;4.72;;
41883;SDS011;27566;50.930;5.328;2023-07-31T06:44:20;15.30;;;5.70;;
41883;SDS011;27566;50.930;5.328;2023-07-31T06:46:46;11.25;;;4.70;;
41883;SDS011;27566;50.930;5.328;2023-07-31T06:49:12;9.57;;;5.45;;
41883;SDS011;27566;50.930;5.328;2023-07-31T06:51:40;16.98;;;5.45;;
41883;SDS011;27566;50.930;5.328;2023-07-31T06:54:07;10.15;;;4.80;;
41883;SDS011;27566;50.930;5.328;2023-07-31T06:56:33;12.18;;;4.57;;
41883;SDS011;27566;50.930;5.328;2023-07-31T06:58:59;13.98;;;4.55;;
41883;SDS011;27566;50.930;5.328;2023-07-31T07:01:28;12.43;;;5.35;;
41883;SDS011;27566;50.930;5.328;2023-07-31T07:03:54;11.45;;;4.75;;
41883;SDS011;27566;50.930;5.328;2023-07-31T07:06:20;10.38;;;4.63;;
41883;SDS011;27566;50.930;5.328;2023-07-31T07:08:47;10.25;;;4.80;;
41883;SDS011;27566;50.930;5.328;2023-07-31T07:11:14;13.30;;;4.45;;
41883;SDS011;27566;50.930;5.328;2023-07-31T07:13:40;10.02;;;4.53;;
41883;SDS011;27566;50.930;5.328;2023-07-31T07:16:06;17.40;;;4.78;;
41883;SDS011;27566;50.930;5.328;2023-07-31T07:18:32;10.48;;;4.53;;
41883;SDS011;27566;50.930;5.328;2023-07-31T07:20:57;8.75;;;4.07;;
41883;SDS011;27566;50.930;5.328;2023-07-31T07:23:23;9.68;;;4.60;;
41883;SDS011;27566;50.930;5.328;2023-07-31T07:25:49;11.30;;;4.47;;
41883;SDS011;27566;50.930;5.328;2023-07-31T07:28:16;8.40;;;4.22;;
41883;SDS011;27566;50.930;5.328;2023-07-31T07:30:42;11.85;;;4.70;;
41883;SDS011;27566;50.930;5.328;2023-07-31T07:33:08;8.65;;;3.92;;
41883;SDS011;27566;50.930;5.328;2023-07-31T07:35:34;8.00;;;4.53;;
41883;SDS011;27566;50.930;5.328;2023-07-31T07:38:03;7.03;;;3.42;;
41883;SDS011;27566;50.930;5.328;2023-07-31T07:40:29;11.73;;;4.60;;
41883;SDS011;27566;50.930;5.328;2023-07-31T07:42:55;11.05;;;4.78;;
41883;SDS011;27566;50.930;5.328;2023-07-31T07:45:21;8.15;;;4.07;;
41883;SDS011;27566;50.930;5.328;2023-07-31T07:47:47;8.82;;;3.78;;
41883;SDS011;27566;50.930;5.328;2023-07-31T07:50:13;7.38;;;3.33;;
41883;SDS011;27566;50.930;5.328;2023-07-31T07:52:41;13.07;;;3.88;;
41883;SDS011;27566;50.930;5.328;2023-07-31T07:55:07;11.70;;;3.67;;
41883;SDS011;27566;50.930;5.328;2023-07-31T07:57:36;8.18;;;4.57;;
41883;SDS011;27566;50.930;5.328;2023-07-31T08:00:02;9.57;;;4.22;;
41883;SDS011;27566;50.930;5.328;2023-07-31T08:02:28;9.98;;;4.18;;
41883;SDS011;27566;50.930;5.328;2023-07-31T08:04:54;8.25;;;3.92;;
41883;SDS011;27566;50.930;5.328;2023-07-31T08:07:20;7.25;;;3.58;;
41883;SDS011;27566;50.930;5.328;2023-07-31T08:09:46;7.60;;;3.83;;
41883;SDS011;27566;50.930;5.328;2023-07-31T08:12:11;6.50;;;3.70;;
41883;SDS011;27566;50.930;5.328;2023-07-31T08:14:38;9.07;;;4.03;;
41883;SDS011;27566;50.930;5.328;2023-07-31T08:17:03;6.22;;;3.60;;
41883;SDS011;27566;50.930;5.328;2023-07-31T08:19:29;8.77;;;3.60;;
41883;SDS011;27566;50.930;5.328;2023-07-31T08:21:55;8.52;;;3.63;;
41883;SDS011;27566;50.930;5.328;2023-07-31T08:24:21;6.07;;;3.05;;
41883;SDS011;27566;50.930;5.328;2023-07-31T08:26:47;8.25;;;4.13;;
41883;SDS011;27566;50.930;5.328;2023-07-31T08:29:13;7.05;;;3.40;;
41883;SDS011;27566;50.930;5.328;2023-07-31T08:31:39;8.63;;;3.92;;
41883;SDS011;27566;50.930;5.328;2023-07-31T08:34:05;5.82;;;2.85;;
41883;SDS011;27566;50.930;5.328;2023-07-31T08:36:31;8.32;;;3.78;;
41883;SDS011;27566;50.930;5.328;2023-07-31T08:38:56;7.70;;;3.78;;
41883;SDS011;27566;50.930;5.328;2023-07-31T08:41:22;10.85;;;4.13;;
41883;SDS011;27566;50.930;5.328;2023-07-31T08:43:51;7.78;;;3.45;;
41883;SDS011;27566;50.930;5.328;2023-07-31T08:46:20;7.40;;;3.72;;
41883;SDS011;27566;50.930;5.328;2023-07-31T08:48:46;9.25;;;3.42;;
41883;SDS011;27566;50.930;5.328;2023-07-31T08:51:14;8.38;;;4.00;;
41883;SDS011;27566;50.930;5.328;2023-07-31T08:53:40;7.55;;;3.53;;
41883;SDS011;27566;50.930;5.328;2023-07-31T08:56:06;7.43;;;3.88;;
41883;SDS011;27566;50.930;5.328;2023-07-31T08:58:33;9.52;;;4.13;;
41883;SDS011;27566;50.930;5.328;2023-07-31T09:01:04;7.03;;;3.75;;
41883;SDS011;27566;50.930;5.328;2023-07-31T09:03:33;9.27;;;3.45;;
41883;SDS011;27566;50.930;5.328;2023-07-31T09:06:02;5.85;;;2.67;;
41883;SDS011;27566;50.930;5.328;2023-07-31T09:08:31;7.68;;;3.35;;
41883;SDS011;27566;50.930;5.328;2023-07-31T09:10:59;6.53;;;3.38;;
41883;SDS011;27566;50.930;5.328;2023-07-31T09:13:28;5.78;;;2.65;;
41883;SDS011;27566;50.930;5.328;2023-07-31T09:15:55;6.05;;;3.10;;
41883;SDS011;27566;50.930;5.328;2023-07-31T09:18:21;6.20;;;3.67;;
41883;SDS011;27566;50.930;5.328;2023-07-31T09:21:00;5.18;;;3.03;;
41883;SDS011;27566;50.930;5.328;2023-07-31T09:23:42;6.15;;;2.63;;
41883;SDS011;27566;50.930;5.328;2023-07-31T09:26:10;5.22;;;2.85;;
41883;SDS011;27566;50.930;5.328;2023-07-31T09:28:36;7.20;;;2.92;;
41883;SDS011;27566;50.930;5.328;2023-07-31T09:31:02;5.45;;;2.75;;
41883;SDS011;27566;50.930;5.328;2023-07-31T09:33:28;4.70;;;2.47;;
41883;SDS011;27566;50.930;5.328;2023-07-31T09:35:56;5.25;;;2.45;;
41883;SDS011;27566;50.930;5.328;2023-07-31T09:38:25;5.80;;;2.47;;
41883;SDS011;27566;50.930;5.328;2023-07-31T09:40:51;6.07;;;2.53;;
41883;SDS011;27566;50.930;5.328;2023-07-31T09:43:18;5.20;;;2.65;;
41883;SDS011;27566;50.930;5.328;2023-07-31T09:45:45;4.70;;;2.50;;
41883;SDS011;27566;50.930;5.328;2023-07-31T09:48:12;5.13;;;2.85;;
41883;SDS011;27566;50.930;5.328;2023-07-31T09:50:43;4.82;;;2.00;;
41883;SDS011;27566;50.930;5.328;2023-07-31T09:53:12;4.35;;;2.45;;
41883;SDS011;27566;50.930;5.328;2023-07-31T09:55:40;5.20;;;2.80;;
41883;SDS011;27566;50.930;5.328;2023-07-31T09:58:08;4.90;;;2.38;;
41883;SDS011;27566;50.930;5.328;2023-07-31T10:00:35;5.10;;;2.17;;
41883;SDS011;27566;50.930;5.328;2023-07-31T10:03:03;6.82;;;3.50;;
41883;SDS011;27566;50.930;5.328;2023-07-31T10:05:40;4.40;;;2.53;;
41883;SDS011;27566;50.930;5.328;2023-07-31T10:08:10;6.72;;;3.10;;
41883;SDS011;27566;50.930;5.328;2023-07-31T10:10:42;6.35;;;3.20;;
41883;SDS011;27566;50.930;5.328;2023-07-31T10:13:09;10.43;;;3.47;;
41883;SDS011;27566;50.930;5.328;2023-07-31T10:15:36;5.82;;;2.88;;
41883;SDS011;27566;50.930;5.328;2023-07-31T10:18:02;6.88;;;4.10;;
41883;SDS011;27566;50.930;5.328;2023-07-31T10:20:30;9.43;;;3.42;;
41883;SDS011;27566;50.930;5.328;2023-07-31T10:22:57;6.38;;;3.55;;
41883;SDS011;27566;50.930;5.328;2023-07-31T10:25:24;10.23;;;4.22;;
41883;SDS011;27566;50.930;5.328;2023-07-31T10:27:52;6.93;;;3.63;;
41883;SDS011;27566;50.930;5.328;2023-07-31T10:30:20;5.75;;;3.60;;
41883;SDS011;27566;50.930;5.328;2023-07-31T10:32:50;7.30;;;4.07;;
41883;SDS011;27566;50.930;5.328;2023-07-31T10:35:18;4.82;;;3.10;;
41883;SDS011;27566;50.930;5.328;2023-07-31T10:37:47;8.85;;;3.83;;
41883;SDS011;27566;50.930;5.328;2023-07-31T10:40:23;6.72;;;3.70;;
41883;SDS011;27566;50.930;5.328;2023-07-31T10:42:54;6.13;;;3.08;;
41883;SDS011;27566;50.930;5.328;2023-07-31T10:45:30;7.82;;;4.90;;
41883;SDS011;27566;50.930;5.328;2023-07-31T10:48:16;10.93;;;4.40;;
41883;SDS011;27566;50.930;5.328;2023-07-31T10:50:55;6.35;;;3.17;;
41883;SDS011;27566;50.930;5.328;2023-07-31T10:53:31;10.75;;;4.28;;
41883;SDS011;27566;50.930;5.328;2023-07-31T10:55:58;7.88;;;3.15;;
41883;SDS011;27566;50.930;5.328;2023-07-31T10:58:25;6.40;;;3.75;;
41883;SDS011;27566;50.930;5.328;2023-07-31T11:00:55;9.55;;;4.03;;
41883;SDS011;27566;50.930;5.328;2023-07-31T11:03:24;7.55;;;4.35;;
41883;SDS011;27566;50.930;5.328;2023-07-31T11:05:52;9.32;;;4.75;;
41883;SDS011;27566;50.930;5.328;2023-07-31T11:08:24;7.45;;;3.53;;
41883;SDS011;27566;50.930;5.328;2023-07-31T11:11:04;10.00;;;4.60;;
41883;SDS011;27566;50.930;5.328;2023-07-31T11:13:33;11.68;;;5.38;;
41883;SDS011;27566;50.930;5.328;2023-07-31T11:16:05;9.77;;;4.78;;
41883;SDS011;27566;50.930;5.328;2023-07-31T11:18:31;11.88;;;5.88;;
41883;SDS011;27566;50.930;5.328;2023-07-31T11:20:58;11.73;;;5.90;;
41883;SDS011;27566;50.930;5.328;2023-07-31T11:23:24;10.55;;;4.95;;
41883;SDS011;27566;50.930;5.328;2023-07-31T11:25:50;9.77;;;4.47;;
41883;SDS011;27566;50.930;5.328;2023-07-31T11:28:16;9.85;;;5.30;;
41883;SDS011;27566;50.930;5.328;2023-07-31T11:30:44;8.90;;;4.88;;
41883;SDS011;27566;50.930;5.328;2023-07-31T11:33:11;8.50;;;4.20;;
41883;SDS011;27566;50.930;5.328;2023-07-31T11:35:43;9.88;;;4.53;;
41883;SDS011;27566;50.930;5.328;2023-07-31T11:38:12;11.85;;;4.85;;
41883;SDS011;27566;50.930;5.328;2023-07-31T11:40:46;10.45;;;4.93;;
41883;SDS011;27566;50.930;5.328;2023-07-31T11:43:12;11.35;;;5.78;;
41883;SDS011;27566;50.930;5.328;2023-07-31T11:45:42;7.60;;;3.92;;
41883;SDS011;27566;50.930;5.328;2023-07-31T11:48:24;11.13;;;6.00;;
41883;SDS011;27566;50.930;5.328;2023-07-31T11:50:52;9.77;;;4.53;;
41883;SDS011;27566;50.930;5.328;2023-07-31T11:53:42;11.30;;;6.18;;
41883;SDS011;27566;50.930;5.328;2023-07-31T11:56:10;7.93;;;4.43;;
41883;SDS011;27566;50.930;5.328;2023-07-31T11:58:39;7.15;;;4.95;;
41883;SDS011;27566;50.930;5.328;2023-07-31T12:01:08;11.55;;;5.45;;
41883;SDS011;27566;50.930;5.328;2023-07-31T12:03:34;7.90;;;4.47;;
41883;SDS011;27566;50.930;5.328;2023-07-31T12:06:01;8.45;;;4.13;;
41883;SDS011;27566;50.930;5.328;2023-07-31T12:08:27;10.38;;;4.90;;
41883;SDS011;27566;50.930;5.328;2023-07-31T12:10:53;10.57;;;4.53;;
41883;SDS011;27566;50.930;5.328;2023-07-31T12:13:26;11.45;;;4.63;;
41883;SDS011;27566;50.930;5.328;2023-07-31T12:15:54;8.23;;;5.00;;
41883;SDS011;27566;50.930;5.328;2023-07-31T12:18:25;10.50;;;5.18;;
41883;SDS011;27566;50.930;5.328;2023-07-31T12:20:56;9.40;;;5.03;;
41883;SDS011;27566;50.930;5.328;2023-07-31T12:23:25;11.07;;;5.60;;
41883;SDS011;27566;50.930;5.328;2023-07-31T12:26:01;7.93;;;4.00;;
41883;SDS011;27566;50.930;5.328;2023-07-31T12:28:34;10.75;;;5.25;;
41883;SDS011;27566;50.930;5.328;2023-07-31T12:31:08;11.98;;;8.02;;
41883;SDS011;27566;50.930;5.328;2023-07-31T12:33:36;10.40;;;5.65;;
41883;SDS011;27566;50.930;5.328;2023-07-31T12:36:08;8.55;;;5.07;;
41883;SDS011;27566;50.930;5.328;2023-07-31T12:38:35;9.20;;;5.78;;
41883;SDS011;27566;50.930;5.328;2023-07-31T12:41:01;9.25;;;4.45;;
41883;SDS011;27566;50.930;5.328;2023-07-31T12:43:27;7.88;;;4.80;;
41883;SDS011;27566;50.930;5.328;2023-07-31T12:45:54;10.52;;;6.00;;
41883;SDS011;27566;50.930;5.328;2023-07-31T12:48:21;9.23;;;4.80;;
41883;SDS011;27566;50.930;5.328;2023-07-31T12:50:47;7.60;;;4.90;;
41883;SDS011;27566;50.930;5.328;2023-07-31T12:53:14;12.65;;;6.32;;
41883;SDS011;27566;50.930;5.328;2023-07-31T12:55:40;11.80;;;5.45;;
41883;SDS011;27566;50.930;5.328;2023-07-31T12:58:06;6.80;;;3.95;;
41883;SDS011;27566;50.930;5.328;2023-07-31T13:00:32;7.13;;;4.28;;
41883;SDS011;27566;50.930;5.328;2023-07-31T13:02:59;7.95;;;4.43;;
41883;SDS011;27566;50.930;5.328;2023-07-31T13:05:26;8.48;;;4.70;;
41883;SDS011;27566;50.930;5.328;2023-07-31T13:07:52;11.50;;;6.45;;
41883;SDS011;27566;50.930;5.328;2023-07-31T13:10:18;12.20;;;5.25;;
41883;SDS011;27566;50.930;5.328;2023-07-31T13:12:45;12.38;;;4.95;;
41883;SDS011;27566;50.930;5.328;2023-07-31T13:15:14;13.73;;;6.22;;
41883;SDS011;27566;50.930;5.328;2023-07-31T13:17:40;8.88;;;5.40;;
41883;SDS011;27566;50.930;5.328;2023-07-31T13:20:06;11.32;;;5.47;;
41883;SDS011;27566;50.930;5.328;2023-07-31T13:22:32;11.50;;;5.32;;
41883;SDS011;27566;50.930;5.328;2023-07-31T13:24:58;9.63;;;5.32;;
41883;SDS011;27566;50.930;5.328;2023-07-31T13:27:25;11.98;;;5.85;;
41883;SDS011;27566;50.930;5.328;2023-07-31T13:29:51;10.70;;;4.93;;
41883;SDS011;27566;50.930;5.328;2023-07-31T13:32:17;12.10;;;5.88;;
41883;SDS011;27566;50.930;5.328;2023-07-31T13:34:47;9.15;;;5.35;;
41883;SDS011;27566;50.930;5.328;2023-07-31T13:37:14;9.80;;;5.00;;
41883;SDS011;27566;50.930;5.328;2023-07-31T13:39:40;9.10;;;5.05;;
41883;SDS011;27566;50.930;5.328;2023-07-31T13:42:07;9.05;;;5.32;;
41883;SDS011;27566;50.930;5.328;2023-07-31T13:44:37;12.13;;;6.03;;
41883;SDS011;27566;50.930;5.328;2023-07-31T13:47:04;9.98;;;5.45;;
41883;SDS011;27566;50.930;5.328;2023-07-31T13:49:30;9.77;;;5.45;;
41883;SDS011;27566;50.930;5.328;2023-07-31T13:51:57;8.02;;;4.72;;
41883;SDS011;27566;50.930;5.328;2023-07-31T13:54:23;16.30;;;6.10;;
41883;SDS011;27566;50.930;5.328;2023-07-31T13:56:50;12.90;;;5.15;;
41883;SDS011;27566;50.930;5.328;2023-07-31T13:59:17;11.00;;;5.43;;
41883;SDS011;27566;50.930;5.328;2023-07-31T14:01:43;10.25;;;5.03;;
41883;SDS011;27566;50.930;5.328;2023-07-31T14:04:09;10.18;;;4.93;;
41883;SDS011;27566;50.930;5.328;2023-07-31T14:06:35;9.27;;;5.03;;
41883;SDS011;27566;50.930;5.328;2023-07-31T14:09:02;10.07;;;5.18;;
41883;SDS011;27566;50.930;5.328;2023-07-31T14:11:28;10.32;;;4.75;;
41883;SDS011;27566;50.930;5.328;2023-07-31T14:13:55;12.27;;;5.55;;
41883;SDS011;27566;50.930;5.328;2023-07-31T14:16:21;7.97;;;4.63;;
41883;SDS011;27566;50.930;5.328;2023-07-31T14:18:47;12.30;;;4.90;;
41883;SDS011;27566;50.930;5.328;2023-07-31T14:21:13;9.32;;;5.10;;
41883;SDS011;27566;50.930;5.328;2023-07-31T14:23:40;10.68;;;5.20;;
41883;SDS011;27566;50.930;5.328;2023-07-31T14:26:06;9.80;;;4.28;;
41883;SDS011;27566;50.930;5.328;2023-07-31T14:28:32;7.95;;;5.00;;
41883;SDS011;27566;50.930;5.328;2023-07-31T14:30:58;8.52;;;4.57;;
41883;SDS011;27566;50.930;5.328;2023-07-31T14:33:24;7.13;;;4.10;;
41883;SDS011;27566;50.930;5.328;2023-07-31T14:35:50;9.52;;;4.57;;
41883;SDS011;27566;50.930;5.328;2023-07-31T14:38:16;10.75;;;4.55;;
41883;SDS011;27566;50.930;5.328;2023-07-31T14:40:43;8.63;;;3.70;;
41883;SDS011;27566;50.930;5.328;2023-07-31T14:43:09;8.05;;;4.30;;
41883;SDS011;27566;50.930;5.328;2023-07-31T14:45:34;7.95;;;3.55;;
41883;SDS011;27566;50.930;5.328;2023-07-31T14:48:00;7.10;;;3.97;;
41883;SDS011;27566;50.930;5.328;2023-07-31T14:50:26;10.18;;;3.83;;
41883;SDS011;27566;50.930;5.328;2023-07-31T14:52:52;5.35;;;3.20;;
41883;SDS011;27566;50.930;5.328;2023-07-31T14:55:18;7.78;;;3.53;;